Date,TemperatureHighF,TemperatureAvgF,TemperatureLowF,DewpointHighF,DewpointAvgF,DewpointLowF,HumidityHigh,HumidityAvg,HumidityLow,PressureMaxIn,PressureMinIn,WindSpeedMaxMPH,WindSpeedAvgMPH,GustSpeedMaxMPH,PrecipitationSumIn
2014-1-1,53.0,46.2,40.7,46.0,38.5,33.0,95,75,56,30.47,30.18,9,3,0,0.04
2014-1-2,58.2,49.7,45.8,58.0,49.2,45.0,100,98,95,30.17,29.56,17,5,0,0.58
2014-1-3,51.7,37.0,29.0,51.0,24.5,16.0,98,62,44,30.51,29.61,27,13,0,0.01
2014-1-4,47.9,37.0,27.2,42.0,30.1,16.0,94,77,60,30.56,30.31,15,8,0,0.00
2014-1-5,61.3,56.0,43.9,58.0,54.7,43.0,99,95,88,30.31,29.89,21,10,0,0.09
2014-1-6,58.8,51.1,33.1,59.0,46.3,11.0,100,85,39,30.12,29.71,24,12,0,0.04
2014-1-7,32.5,23.8,17.4,14.0,3.8,-1.0,53,43,31,30.59,30.14,25,9,0,0.00
2014-1-8,40.5,30.4,22.7,27.0,15.4,6.0,73,55,36,30.69,30.56,8,3,0,0.00
2014-1-9,56.5,41.0,32.1,41.0,31.2,21.0,86,69,46,30.60,30.50,14,9,0,0.00
2014-1-10,62.8,53.6,44.2,63.0,50.3,-99.9,99,91,84,30.50,30.14,19,9,0,0.15
2014-1-11,63.8,57.1,52.7,64.0,55.7,-99.9,100,98,95,30.14,29.68,42,2,0,0.39
2014-1-12,58.2,53.1,47.1,56.0,42.9,34.0,100,71,42,30.24,29.73,18,7,0,0.01
2014-1-13,58.0,52.2,45.0,56.0,46.6,38.0,93,81,68,30.27,30.04,13,2,0,0.00
2014-1-14,58.2,54.7,47.3,58.0,53.9,47.0,99,96,90,30.03,29.79,19,7,0,0.69
2014-1-15,56.7,48.7,39.8,52.0,46.7,40.0,100,93,80,30.03,29.89,7,2,0,0.01
2014-1-16,50.0,41.3,36.7,44.0,38.3,33.0,97,89,80,30.12,29.87,17,6,0,0.01
2014-1-17,55.3,47.5,37.3,50.0,38.4,26.0,91,72,51,30.15,29.92,21,10,0,0.00
2014-1-18,55.1,41.5,32.9,51.0,28.1,20.0,92,61,42,30.13,29.84,24,8,0,0.13
2014-1-19,52.0,46.2,33.3,45.0,33.8,19.0,84,63,52,30.11,29.96,26,11,0,0.00
2014-1-20,54.9,50.1,44.6,49.0,43.5,33.0,93,79,62,30.01,29.86,20,10,0,0.00
2014-1-21,56.0,50.4,32.0,50.0,46.3,30.0,94,86,77,29.89,29.50,26,13,0,0.11
2014-1-22,32.3,28.2,23.9,29.0,21.4,19.0,92,76,63,30.18,29.75,26,9,0,0.00
2014-1-23,38.3,31.2,24.9,26.0,19.5,15.0,87,63,40,30.39,30.17,5,1,0,0.00
2014-1-24,33.3,25.1,19.8,21.0,6.1,1.0,61,45,31,30.61,30.39,21,9,0,0.00
2014-1-25,47.8,37.5,21.8,41.0,26.3,7.0,80,65,50,30.38,29.74,35,15,0,0.00
2014-1-26,48.9,44.1,34.7,44.0,31.8,22.0,87,63,44,30.07,29.90,20,9,0,0.00
2014-1-27,54.6,49.8,42.9,48.0,45.3,36.0,94,84,75,30.03,29.86,25,9,0,0.00
2014-1-28,41.7,29.6,23.7,34.0,23.9,20.0,94,80,61,30.32,30.05,20,12,0,0.00
2014-1-29,26.1,23.2,19.1,23.0,18.1,14.0,94,81,65,30.41,30.10,17,9,0,0.00
2014-1-30,35.0,29.9,24.0,32.0,23.1,14.0,96,76,64,30.43,30.23,16,7,0,0.02
2014-1-31,48.8,38.3,33.0,45.0,36.8,32.0,97,94,84,30.28,30.20,14,4,0,1.41
2014-2-1,55.1,43.1,33.1,45.0,38.8,32.0,98,87,49,30.29,30.14,14,6,0,0.37
2014-2-2,52.9,48.1,43.3,51.0,47.5,43.0,99,97,92,30.18,30.10,9,4,0,0.00
2014-2-3,56.0,50.7,42.9,56.0,50.0,39.0,100,97,87,30.27,29.98,20,7,0,0.01
2014-2-4,44.7,42.2,39.4,44.0,40.7,38.0,98,94,88,30.39,30.09,15,9,0,0.14
2014-2-5,56.7,50.6,44.8,57.0,50.4,44.0,100,99,90,30.08,29.82,21,7,0,0.18
2014-2-6,51.9,41.6,36.1,48.0,34.3,30.0,90,75,64,30.41,30.03,17,9,0,0.00
2014-2-7,49.1,39.6,31.9,36.0,33.2,31.0,96,80,50,30.39,30.28,11,5,0,0.11
2014-2-8,43.3,39.8,37.0,41.0,37.7,35.0,97,92,86,30.32,30.12,14,6,0,0.41
2014-2-9,49.2,42.5,33.6,47.0,39.5,32.0,96,89,73,30.25,30.05,11,5,0,0.00
2014-2-10,50.3,44.1,35.8,46.0,38.8,31.0,96,82,64,30.27,30.05,15,6,0,0.00
2014-2-11,35.6,31.0,28.2,34.0,29.8,26.0,96,95,90,30.41,30.23,16,4,0,0.39
2014-2-12,55.9,35.7,28.6,55.0,34.5,26.0,99,95,90,30.39,29.67,25,7,0,0.45
2014-2-13,54.2,41.4,35.9,54.0,40.0,33.0,99,94,89,29.71,29.45,24,10,0,0.24
2014-2-14,50.1,39.2,36.7,45.0,24.6,-99.9,90,76,78,29.89,29.72,17,-2,0,0.17
2014-2-15,49.9,38.3,37.0,48.0,14.5,-99.9,96,61,47,30.08,29.53,28,11,0,0.05
2014-2-16,48.0,40.9,33.7,42.0,29.8,21.0,87,66,51,30.20,30.06,13,6,0,0.00
2014-2-17,47.1,40.4,36.4,37.0,31.1,28.0,86,70,49,30.42,30.19,18,9,0,0.00
2014-2-18,66.4,50.9,38.0,51.0,44.7,-99.9,96,83,46,30.26,30.14,16,-6,0,0.00
2014-2-19,56.6,51.9,46.1,54.0,49.7,45.0,98,92,86,30.18,29.97,21,9,0,0.00
2014-2-20,61.2,54.9,49.6,58.0,50.7,41.0,99,86,63,30.25,30.14,13,5,0,0.00
2014-2-21,60.5,55.6,51.6,60.0,55.0,51.0,99,97,93,30.14,29.91,30,12,0,0.05
2014-2-22,65.7,54.2,48.4,53.0,43.8,31.0,99,72,28,30.20,30.05,15,3,0,0.01
2014-2-23,58.8,51.9,46.3,51.0,47.2,42.0,94,84,63,30.15,29.94,11,4,0,0.00
2014-2-24,60.9,52.6,47.4,51.0,47.7,42.0,96,84,52,30.17,29.91,13,4,0,0.00
2014-2-25,60.7,50.4,43.1,54.0,41.7,31.0,95,73,58,30.16,29.90,18,5,0,0.00
2014-2-26,46.1,40.9,36.6,39.0,36.7,35.0,95,85,70,30.01,29.82,18,9,0,0.19
2014-2-27,50.2,42.8,33.5,45.0,38.0,32.0,93,83,69,30.00,29.81,19,8,0,0.00
2014-2-28,45.9,39.1,34.3,40.0,30.3,26.0,89,71,54,30.33,30.00,23,12,0,0.00
2014-3-1,58.3,45.0,34.6,45.0,37.5,28.0,91,76,59,30.36,30.25,13,5,0,0.00
2014-3-2,58.2,51.3,43.8,52.0,47.5,42.0,94,87,68,30.27,30.00,12,4,0,0.00
2014-3-3,58.3,45.2,29.9,54.0,42.7,27.0,95,90,82,30.22,29.93,24,12,0,0.00
2014-3-4,33.1,30.4,26.6,32.0,28.0,23.0,96,91,84,30.31,30.20,21,11,0,0.00
2014-3-5,39.9,36.4,32.3,39.0,35.6,31.0,97,96,92,30.27,30.14,14,8,0,0.17
2014-3-6,47.0,40.6,35.8,47.0,38.4,32.0,98,92,84,30.30,29.94,28,15,0,0.43
2014-3-7,52.4,47.4,40.5,52.0,46.4,39.0,98,96,93,29.93,29.64,31,20,0,1.28
2014-3-8,62.1,47.1,36.0,49.0,41.8,34.0,94,83,48,30.11,29.89,19,8,0,0.00
2014-3-9,68.4,52.8,46.5,50.0,46.6,43.0,96,81,45,30.10,30.02,16,7,0,0.00
2014-3-10,70.4,53.6,43.9,53.0,48.9,43.0,97,85,40,30.08,29.86,13,5,0,0.00
2014-3-11,59.5,53.9,49.5,55.0,50.9,48.0,96,90,79,29.87,29.75,13,7,0,0.00
2014-3-12,58.6,54.9,52.0,56.0,53.2,50.0,97,94,85,29.76,29.38,34,16,0,0.16
2014-3-13,55.2,43.8,37.3,48.0,22.7,15.0,77,45,29,30.28,29.52,27,12,0,0.00
2014-3-14,54.2,45.2,34.4,48.0,31.1,16.0,89,60,37,30.42,30.20,15,6,0,0.00
2014-3-15,59.5,53.8,50.6,52.0,49.8,48.0,94,86,72,30.19,30.00,17,8,0,0.00
2014-3-16,56.3,51.9,48.7,53.0,49.4,45.0,98,91,75,30.09,29.82,16,6,0,0.52
2014-3-17,48.4,42.0,38.3,48.0,41.3,38.0,98,97,96,29.94,29.76,19,11,0,0.40
2014-3-18,47.1,42.8,38.2,46.0,42.0,38.0,98,97,94,30.10,29.84,25,14,0,0.21
2014-3-19,57.6,49.8,43.8,56.0,48.8,43.0,99,96,90,30.14,30.01,17,8,0,0.05
2014-3-20,66.1,53.6,46.8,53.0,49.7,46.0,98,87,55,30.05,29.97,13,6,0,0.00
2014-3-21,62.4,52.9,45.8,51.0,45.4,34.0,95,77,34,30.20,30.05,12,6,0,0.00
2014-3-22,61.5,57.2,53.2,59.0,54.6,51.0,97,91,81,30.15,29.99,18,6,0,0.32
2014-3-23,61.7,54.9,42.7,59.0,50.4,38.0,99,86,58,30.14,29.91,17,7,0,0.02
2014-3-24,48.9,42.2,36.8,39.0,30.0,19.0,95,65,31,30.29,30.13,20,10,0,0.00
2014-3-25,52.6,45.0,40.1,50.0,40.9,33.0,96,86,69,30.18,29.67,26,10,0,0.47
2014-3-26,47.3,40.3,34.0,37.0,25.9,18.0,93,60,32,30.37,29.87,21,10,0,0.03
2014-3-27,54.1,45.2,35.5,51.0,33.0,25.0,88,64,42,30.55,30.37,11,5,0,0.00
2014-3-28,62.2,58.0,54.3,61.0,55.1,51.0,98,90,83,30.40,30.19,19,11,0,0.08
2014-3-29,61.2,59.4,57.7,61.0,58.5,57.0,99,97,93,30.18,29.67,29,16,0,0.49
2014-3-30,58.8,52.2,47.8,59.0,45.2,37.0,99,78,59,29.92,29.60,26,12,0,0.01
2014-3-31,68.9,56.2,45.4,38.0,34.1,30.0,63,45,26,30.13,29.93,29,9,0,0.00
2014-4-1,63.2,56.9,48.0,56.0,49.1,38.0,95,76,43,30.21,30.09,14,4,0,0.00
2014-4-2,63.6,58.8,55.1,58.0,55.7,54.0,95,89,79,30.16,30.07,16,9,0,0.00
2014-4-3,63.7,59.6,55.7,59.0,56.4,54.0,96,89,83,30.11,29.99,24,10,0,0.00
2014-4-4,64.1,60.0,56.9,60.0,58.1,56.0,98,93,84,30.00,29.86,27,12,0,0.01
2014-4-5,65.0,60.8,56.8,59.0,57.8,53.0,97,90,81,30.07,29.89,19,9,0,0.00
2014-4-6,58.1,55.8,52.6,53.0,44.8,40.0,87,67,54,30.18,30.07,26,14,0,0.00
2014-4-7,64.0,61.1,56.6,64.0,59.9,53.0,99,96,87,30.10,29.83,20,11,0,1.52
2014-4-8,64.2,60.7,58.8,64.0,60.1,56.0,99,98,85,29.83,29.61,27,13,0,0.35
2014-4-9,68.3,60.0,53.3,56.0,49.4,41.0,94,71,38,30.13,29.64,22,6,0,0.00
2014-4-10,64.1,59.0,51.1,57.0,52.3,46.0,94,79,56,30.33,30.13,14,6,0,0.00
2014-4-11,65.9,61.8,58.6,59.0,58.0,56.0,94,87,79,30.31,30.17,25,12,0,0.00
2014-4-12,68.8,63.5,59.4,63.0,59.9,57.0,94,88,80,30.29,30.21,14,5,0,0.00
2014-4-13,69.6,65.4,61.2,65.0,62.5,59.0,95,90,80,30.29,30.19,9,4,0,0.00
2014-4-14,70.2,66.5,64.2,66.0,63.4,60.0,96,90,80,30.19,29.95,22,10,0,0.00
2014-4-15,67.4,65.4,54.0,66.0,64.3,53.0,97,96,91,29.95,29.70,27,18,0,0.70
2014-4-16,54.2,46.4,38.9,51.0,36.1,31.0,96,69,49,30.46,29.88,28,15,0,0.01
2014-4-17,65.0,52.5,41.9,51.0,43.9,34.0,85,73,59,30.51,30.43,21,10,0,0.00
2014-4-18,64.2,53.7,45.2,53.0,47.9,43.0,94,81,65,30.46,30.20,17,10,0,0.17
2014-4-19,57.0,53.7,50.5,56.0,52.7,48.0,98,96,91,30.20,30.05,37,17,0,2.23
2014-4-20,56.7,54.2,51.5,56.0,53.1,49.0,98,95,90,30.12,30.04,30,17,0,0.05
2014-4-21,70.8,59.8,51.1,59.0,54.1,49.0,94,82,62,30.11,29.95,24,10,0,0.00
2014-4-22,65.4,60.6,53.9,60.0,57.4,52.0,97,89,79,29.97,29.71,19,8,0,0.00
2014-4-23,75.7,66.7,58.0,60.0,50.3,34.0,95,61,25,29.96,29.70,17,6,0,0.00
2014-4-24,66.0,58.6,52.9,55.0,46.0,34.0,86,65,30,30.17,29.97,14,7,0,0.00
2014-4-25,68.4,64.5,59.9,66.0,61.7,55.0,96,90,83,30.07,29.76,24,10,0,0.26
2014-4-26,74.4,64.9,60.9,62.0,55.5,44.0,96,74,37,30.04,29.84,15,9,0,0.00
2014-4-27,74.6,65.4,61.3,64.0,59.2,55.0,91,81,55,30.06,29.98,21,9,0,0.00
2014-4-28,71.0,66.9,62.1,68.0,64.7,59.0,96,93,88,30.05,29.93,16,7,0,0.00
2014-4-29,72.2,69.7,66.9,70.0,68.5,66.0,97,95,93,30.11,29.93,15,6,0,0.03
2014-4-30,72.2,69.3,66.3,70.0,68.2,65.0,98,96,90,30.13,30.00,26,15,0,0.39
2014-5-1,71.6,69.4,67.7,69.0,68.0,67.0,98,95,90,30.01,29.89,23,16,0,0.08
2014-5-2,70.8,66.1,62.9,67.0,59.9,56.0,95,81,61,29.96,29.87,23,8,0,0.01
2014-5-3,68.7,65.5,61.1,64.0,59.9,57.0,94,82,68,29.96,29.89,17,7,0,0.02
2014-5-4,79.7,68.2,62.6,63.0,56.2,46.0,89,67,31,30.02,29.89,20,9,0,0.00
2014-5-5,70.3,66.1,62.3,64.0,56.4,50.0,88,72,49,30.05,29.90,23,12,0,0.00
2014-5-6,86.2,71.5,65.0,67.0,64.9,61.0,95,81,43,30.04,29.85,18,8,0,0.00
2014-5-7,74.4,69.4,64.7,70.0,67.1,61.0,95,92,85,30.17,30.05,18,10,0,0.00
2014-5-8,75.8,71.3,68.2,70.0,68.2,67.0,96,89,79,30.23,30.13,18,11,0,0.00
2014-5-9,75.3,71.1,66.9,71.0,68.6,65.0,97,92,84,30.22,30.12,20,12,0,0.00
2014-5-10,74.0,70.9,68.3,71.0,69.4,68.0,99,95,89,30.21,30.10,19,12,0,0.00
2014-5-11,73.5,70.6,67.8,71.0,68.8,67.0,97,94,88,30.18,30.11,14,6,0,0.00
2014-5-12,76.4,71.6,68.1,73.0,70.3,68.0,99,96,88,30.24,30.15,11,4,0,0.00
2014-5-13,75.8,71.7,68.7,73.0,70.3,68.0,99,95,88,30.21,30.15,12,6,0,0.01
2014-5-14,79.8,73.3,67.4,74.0,71.0,67.0,99,92,79,30.24,30.16,11,4,0,0.01
2014-5-15,76.4,74.3,72.8,72.0,71.5,70.0,95,90,86,30.18,29.97,25,14,0,0.08
2014-5-16,79.9,73.5,67.0,73.0,66.3,52.0,98,80,52,30.04,29.85,37,13,0,1.27
2014-5-17,72.3,65.3,57.7,53.0,46.6,40.0,76,53,34,30.20,30.04,19,6,0,0.00
2014-5-18,73.0,66.3,60.5,62.0,55.7,48.0,86,69,54,30.22,30.15,15,5,0,0.00
2014-5-19,73.0,65.1,58.0,57.0,50.0,44.0,90,61,36,30.31,30.20,23,9,0,0.00
2014-5-20,72.0,66.1,56.5,60.0,54.4,46.0,84,67,48,30.33,30.17,19,10,0,0.00
2014-5-21,73.9,70.7,68.5,68.0,64.6,59.0,93,81,71,30.17,30.00,23,16,0,0.00
2014-5-22,88.1,74.9,68.2,70.0,68.0,65.0,96,80,47,29.99,29.87,17,7,0,0.00
2014-5-23,87.4,75.1,69.3,70.0,66.1,62.0,94,75,42,30.00,29.91,14,6,0,0.48
2014-5-24,78.6,70.4,64.9,69.0,61.2,52.0,96,75,39,30.16,29.95,21,9,0,0.00
2014-5-25,75.1,71.1,65.0,66.0,63.0,60.0,89,76,66,30.23,30.14,14,8,0,0.00
2014-5-26,75.9,73.3,70.6,69.0,67.7,65.0,88,82,76,30.27,30.16,22,12,0,0.00
2014-5-27,76.0,73.7,71.7,72.0,70.3,69.0,93,89,85,30.18,30.01,26,17,0,0.33
2014-5-28,79.0,74.1,70.3,74.0,71.6,68.0,96,92,84,30.04,29.96,20,11,0,0.03
2014-5-29,82.8,75.4,69.9,72.0,69.6,66.0,96,83,68,30.12,30.00,14,7,0,0.00
2014-5-30,75.7,70.0,66.3,68.0,66.3,64.0,93,88,78,30.15,30.06,15,6,0,0.00
2014-5-31,80.2,70.9,65.3,66.0,61.6,52.0,92,74,54,30.25,30.11,21,8,0,0.00
2014-6-1,76.1,68.7,60.5,57.0,54.8,51.0,84,63,41,30.34,30.24,18,8,0,0.00
2014-6-2,75.5,68.5,59.9,62.0,58.7,56.0,92,72,55,30.32,30.18,12,8,0,0.00
2014-6-3,76.7,73.2,66.4,70.0,66.8,61.0,88,80,70,30.19,29.97,23,12,0,0.00
2014-6-4,79.8,75.7,71.0,74.0,71.6,68.0,91,87,81,29.97,29.84,23,11,0,0.00
2014-6-5,77.9,75.6,70.6,74.0,72.9,69.0,96,91,87,29.87,29.76,30,20,0,1.38
2014-6-6,78.4,75.2,71.8,73.0,70.3,66.0,96,85,67,29.97,29.84,20,10,0,0.00
2014-6-7,83.3,75.7,70.6,69.0,64.8,60.0,90,70,49,30.04,29.95,22,9,0,0.00
2014-6-8,76.6,72.1,65.5,70.0,64.0,60.0,90,76,60,30.06,29.95,15,7,0,0.00
2014-6-9,79.7,76.8,74.8,76.0,73.3,69.0,95,89,81,29.98,29.93,20,14,0,0.20
2014-6-10,81.4,77.8,71.6,78.0,76.0,70.0,97,94,90,30.01,29.95,22,12,0,0.01
2014-6-11,82.3,79.3,76.9,79.0,76.9,75.0,96,92,87,30.02,29.93,20,11,0,0.00
2014-6-12,81.3,77.7,73.0,76.0,74.3,69.0,95,89,81,29.97,29.87,20,9,0,0.26
2014-6-13,81.4,78.5,76.5,77.0,75.4,74.0,93,90,81,29.93,29.86,26,16,0,0.00
2014-6-14,82.7,76.6,71.2,77.0,73.6,69.0,96,90,82,30.08,29.91,17,6,0,0.52
2014-6-15,82.7,76.6,72.7,73.0,70.9,69.0,95,83,67,30.20,30.07,20,10,0,0.00
2014-6-16,82.0,78.5,72.9,76.0,72.7,70.0,93,82,73,30.23,30.15,17,10,0,0.00
2014-6-17,83.6,79.0,75.3,77.0,73.8,71.0,89,84,68,30.21,30.14,23,14,0,0.00
2014-6-18,82.2,78.7,74.3,76.0,74.1,72.0,92,86,78,30.17,30.10,22,14,0,0.00
2014-6-19,81.9,79.1,75.5,76.0,75.3,73.0,93,88,82,30.16,30.02,22,14,0,0.00
2014-6-20,86.6,78.8,70.7,78.0,74.5,69.0,94,87,67,30.07,29.96,20,6,0,1.22
2014-6-21,82.5,77.0,72.6,78.0,73.9,70.0,95,90,82,29.98,29.83,18,8,0,0.54
2014-6-22,85.7,78.2,72.7,76.0,73.2,71.0,96,85,66,29.97,29.81,18,6,0,0.00
2014-6-23,85.3,77.5,71.1,74.0,71.6,69.0,96,83,63,30.14,29.97,23,10,0,0.00
2014-6-24,82.6,78.9,72.8,77.0,74.7,71.0,95,87,79,30.16,30.07,15,9,0,0.00
2014-6-25,83.3,80.3,74.4,79.0,77.1,73.0,94,90,81,30.09,29.95,23,13,0,0.17
2014-6-26,88.9,81.9,78.2,79.0,76.8,72.0,91,84,60,30.02,29.93,22,10,0,0.00
2014-6-27,83.8,78.2,72.6,78.0,74.1,69.0,95,87,76,30.12,29.98,29,10,0,1.03
2014-6-28,85.3,77.2,73.1,77.0,73.8,68.0,95,89,72,30.20,30.10,22,9,0,0.21
2014-6-29,83.7,76.9,70.1,71.0,66.1,57.0,91,71,40,30.22,30.14,17,7,0,0.00
2014-6-30,82.0,77.2,71.1,72.0,66.9,59.0,89,72,47,30.16,30.02,12,6,0,0.00
2014-7-1,84.1,80.4,74.2,77.0,74.3,72.0,93,82,74,30.04,29.97,17,8,0,0.00
2014-7-2,85.8,82.2,80.2,80.0,78.5,76.0,92,88,82,30.05,29.98,19,13,0,0.00
2014-7-3,83.7,80.4,75.1,79.0,77.5,73.0,97,91,86,30.05,29.24,52,21,0,2.60
2014-7-4,87.5,82.2,74.6,76.0,74.7,72.0,97,78,62,30.13,29.47,31,5,0,0.19
2014-7-5,83.1,76.7,71.9,75.0,62.4,58.0,87,62,44,30.27,30.13,21,8,0,0.00
2014-7-6,81.3,76.7,71.3,73.0,63.5,57.0,83,65,45,30.23,30.10,10,4,0,0.00
2014-7-7,83.1,79.6,74.1,77.0,74.2,72.0,93,83,75,30.11,30.02,23,12,0,0.00
2014-7-8,83.6,81.4,79.6,80.0,77.6,76.0,90,88,84,30.09,29.99,26,14,0,0.00
2014-7-9,84.1,81.8,80.4,80.0,78.6,77.0,92,90,86,30.09,30.00,0,0,0,0.00
2014-7-10,83.7,81.0,73.7,80.0,77.4,71.0,95,88,76,30.16,30.07,0,0,0,0.66
2014-7-11,80.2,77.5,73.6,75.0,73.7,71.0,96,88,81,30.22,30.11,0,0,0,0.08
2014-7-12,83.1,78.9,74.7,76.0,74.7,73.0,95,87,75,30.25,30.18,0,0,0,0.00
2014-7-13,84.5,80.8,75.3,78.0,75.4,73.0,94,84,76,30.19,30.07,0,0,0,0.00
2014-7-14,84.4,81.2,77.6,79.0,76.7,73.0,91,86,76,30.09,29.96,0,0,0,0.00
2014-7-15,82.7,80.3,76.0,79.0,77.0,72.0,94,89,84,29.98,29.85,0,0,0,0.10
2014-7-16,80.8,75.8,73.7,78.0,73.7,71.0,96,93,86,29.93,29.85,0,0,0,2.11
2014-7-17,85.5,77.1,69.6,74.0,69.6,65.0,97,79,55,30.11,29.92,0,0,0,0.00
2014-7-18,85.0,77.7,70.5,71.0,65.6,57.0,91,69,41,30.18,30.10,0,0,0,0.00
2014-7-19,80.7,76.7,72.6,75.0,71.4,64.0,90,84,72,30.17,30.08,0,0,0,0.00
2014-7-20,83.3,78.1,73.3,75.0,73.2,71.0,94,85,75,30.14,30.07,0,0,0,0.00
2014-7-21,82.5,78.6,75.2,77.0,75.1,73.0,96,89,78,30.18,30.09,0,0,0,0.53
2014-7-22,80.0,77.6,75.0,77.0,75.5,74.0,97,93,88,30.17,30.11,0,0,0,0.15
2014-7-23,84.4,80.4,76.0,79.0,76.9,74.0,95,89,79,30.12,29.97,0,0,0,0.00
2014-7-24,84.4,79.3,73.0,81.0,76.5,71.0,95,91,82,29.98,29.88,0,0,0,2.10
2014-7-25,81.1,75.5,69.0,75.0,71.6,68.0,98,88,74,30.08,29.95,0,0,0,0.19
2014-7-26,85.1,80.9,76.2,79.0,76.3,74.0,94,86,74,30.06,29.98,0,0,0,0.00
2014-7-27,86.9,83.0,79.8,82.0,79.7,77.0,95,89,82,30.01,29.83,0,0,0,0.00
2014-7-28,85.9,82.0,75.2,81.0,78.0,73.0,94,88,71,29.85,29.76,0,0,0,0.87
2014-7-29,84.5,77.0,70.7,76.0,69.5,66.0,94,78,58,30.01,29.84,0,0,0,0.15
2014-7-30,84.5,77.6,72.1,71.0,68.8,66.0,89,75,55,30.10,29.99,0,0,0,0.00
2014-7-31,82.9,78.5,73.4,72.0,70.9,69.0,91,78,66,30.16,30.08,0,0,0,0.00
2014-8-1,80.2,77.2,73.6,76.0,74.0,71.0,97,90,74,30.16,30.07,0,0,0,3.01
2014-8-2,79.6,76.3,73.9,77.0,73.8,71.0,95,92,86,30.13,30.06,0,0,0,1.04
2014-8-3,78.0,74.3,71.2,75.0,72.3,70.0,98,93,82,30.16,30.07,0,0,0,1.91
2014-8-4,78.8,76.4,74.2,75.0,74.1,73.0,96,92,87,30.12,30.05,0,0,0,0.65
2014-8-5,85.1,77.7,74.2,77.0,74.3,73.0,96,89,73,30.06,29.98,0,0,0,0.00
2014-8-6,83.4,78.9,73.4,79.0,75.5,72.0,96,89,80,30.01,29.94,0,0,0,0.01
2014-8-7,84.4,78.6,75.6,78.0,74.3,71.0,94,86,77,30.04,29.93,0,0,0,0.12
2014-8-8,87.0,79.5,73.9,74.0,71.8,68.0,91,78,58,30.12,30.02,0,0,0,0.00
2014-8-9,81.4,75.7,71.4,72.0,70.0,68.0,93,83,66,30.13,30.06,0,0,0,0.07
2014-8-10,82.2,77.4,72.7,74.0,72.6,70.0,93,85,70,30.10,30.05,0,0,0,0.00
2014-8-11,83.3,78.9,75.8,76.0,73.0,70.0,94,82,72,30.08,29.98,0,0,0,0.32
2014-8-12,83.8,80.8,78.0,80.0,77.9,75.0,94,91,83,29.98,29.84,0,0,0,0.00
2014-8-13,86.0,81.2,74.9,78.0,74.5,67.0,91,80,58,29.96,29.82,0,0,0,0.00
2014-8-14,81.8,75.7,67.5,69.0,65.6,63.0,87,72,59,30.05,29.95,0,0,0,0.00
2014-8-15,83.1,78.0,71.4,71.0,68.9,64.0,90,74,59,30.08,30.00,0,0,0,0.00
2014-8-16,83.7,79.7,73.7,77.0,72.2,68.0,89,78,64,30.08,30.00,0,0,0,0.00
2014-8-17,86.8,81.8,77.2,80.0,76.8,73.0,93,85,65,30.04,29.96,0,0,0,0.00
2014-8-18,85.1,80.1,72.6,82.0,76.4,71.0,96,88,82,29.98,29.82,0,0,0,1.98
2014-8-19,85.1,82.4,72.8,80.0,77.5,71.0,94,85,78,29.93,29.83,0,0,0,0.14
2014-8-20,86.0,79.6,74.3,78.0,75.9,73.0,97,88,70,30.07,29.87,0,0,0,0.00
2014-8-21,86.4,82.5,79.8,83.0,78.6,72.0,93,88,72,30.08,30.00,0,0,0,0.01
2014-8-22,91.9,84.2,78.1,81.0,77.2,73.0,90,80,56,30.04,29.95,0,0,0,0.00
2014-8-23,84.3,79.0,73.4,78.0,75.0,71.0,95,87,77,29.98,29.93,0,0,0,0.85
2014-8-24,82.1,76.6,70.8,73.0,68.9,64.0,94,78,59,30.05,29.92,0,0,0,0.00
2014-8-25,80.5,73.4,66.6,73.0,67.9,64.0,93,83,72,30.08,30.02,0,0,0,0.00
2014-8-26,84.8,75.6,66.9,72.0,67.5,59.0,95,77,43,30.10,30.04,0,0,0,0.00
2014-8-27,85.7,77.6,69.9,75.0,71.4,68.0,96,82,66,30.04,29.94,0,0,0,0.00
2014-8-28,84.2,78.5,70.6,76.0,70.4,64.0,84,76,57,30.05,29.96,0,0,0,0.00
2014-8-29,87.8,80.9,75.5,76.0,72.1,65.0,90,75,48,30.19,30.05,0,0,0,0.00
2014-8-30,83.0,79.5,75.4,77.0,75.5,74.0,96,88,77,30.25,30.16,0,0,0,0.00
2014-8-31,86.1,82.7,80.3,79.0,76.5,73.0,89,81,75,30.22,30.12,0,0,0,0.00
2014-9-1,85.1,82.6,79.8,79.0,78.3,77.0,91,87,80,30.15,30.07,0,0,0,0.00
2014-9-2,84.9,82.2,79.5,80.0,78.5,77.0,93,88,82,30.11,30.01,0,0,0,0.00
2014-9-3,85.0,82.3,79.1,80.0,77.8,76.0,91,86,77,30.15,30.03,0,0,0,0.00
2014-9-4,86.4,82.4,78.5,78.0,77.1,75.0,91,84,72,30.21,30.13,0,0,0,0.05
2014-9-5,87.2,83.2,80.2,79.0,77.2,76.0,88,82,72,30.23,30.12,0,0,0,0.00
2014-9-6,84.5,82.1,79.0,78.0,76.6,74.0,89,83,76,30.13,29.99,0,0,0,0.01
2014-9-7,83.9,78.2,75.2,78.0,75.0,72.0,94,90,81,30.10,30.00,0,0,0,0.37
2014-9-8,79.7,76.2,72.8,77.0,74.1,71.0,97,93,86,30.14,30.05,0,0,0,2.77
2014-9-9,79.6,76.3,73.2,77.0,73.4,72.0,95,90,83,30.08,30.02,0,0,0,0.09
2014-9-10,83.0,76.7,70.8,74.0,71.9,70.0,97,86,70,30.12,30.02,0,0,0,0.00
2014-9-11,83.2,79.1,72.3,78.0,74.2,71.0,95,85,76,30.10,29.99,0,0,0,0.00
2014-9-12,86.0,79.5,74.2,80.0,76.4,73.0,97,90,80,30.11,30.01,0,0,0,2.27
2014-9-13,84.3,77.9,73.3,79.0,75.2,73.0,98,91,81,30.15,30.07,0,0,0,0.00
2014-9-14,78.7,72.9,69.2,74.0,68.6,65.0,95,86,75,30.24,30.14,0,0,0,0.00
2014-9-15,78.0,72.3,67.9,70.0,66.8,64.0,89,83,73,30.24,30.14,0,0,0,0.00
2014-9-16,80.8,76.6,72.2,75.0,71.7,68.0,92,85,78,30.14,29.97,0,0,0,0.08
2014-9-17,82.2,75.2,71.8,74.0,71.2,68.0,96,87,75,29.98,29.89,0,0,0,0.15
2014-9-18,82.0,73.9,68.7,70.0,65.5,59.0,93,76,56,30.08,29.91,0,0,0,0.00
2014-9-19,80.4,73.3,68.5,68.0,65.5,63.0,88,77,61,30.21,30.07,0,0,0,0.00
2014-9-20,76.4,72.6,69.4,72.0,68.8,65.0,96,88,81,30.20,29.89,0,0,0,0.07
2014-9-21,84.3,76.1,70.4,74.0,70.1,62.0,97,83,54,29.91,29.75,0,0,0,0.61
2014-9-22,81.1,76.6,71.6,74.0,67.0,63.0,87,73,55,30.13,29.89,0,0,0,0.00
2014-9-23,71.5,66.7,62.3,66.0,62.7,60.0,94,87,78,30.24,30.12,0,0,0,0.09
2014-9-24,75.2,69.9,63.0,74.0,68.6,60.0,97,95,89,30.20,30.13,0,0,0,0.58
2014-9-25,75.3,71.7,67.0,74.0,71.0,66.0,99,97,94,30.21,30.14,0,0,0,0.23
2014-9-26,74.2,69.1,65.8,70.0,66.5,63.0,98,91,83,30.19,30.12,0,0,0,0.01
2014-9-27,79.5,71.2,64.3,70.0,66.1,63.0,95,84,70,30.20,30.14,0,0,0,0.00
2014-9-28,80.0,71.3,64.5,70.0,66.9,63.0,96,86,71,30.18,30.08,0,0,0,0.00
2014-9-29,76.3,70.8,66.5,69.0,67.9,65.0,98,90,78,30.08,29.96,0,0,0,0.05
2014-9-30,81.1,71.9,64.8,68.0,66.2,63.0,97,83,61,29.96,29.84,0,0,0,0.00
2014-10-1,81.1,71.9,64.7,69.0,66.3,64.0,98,84,61,30.06,29.91,0,0,0,0.00
2014-10-2,77.9,72.6,67.6,71.0,68.1,66.0,95,86,76,30.14,30.05,0,0,0,0.00
2014-10-3,77.7,73.7,68.2,73.0,70.1,66.0,96,88,81,30.11,29.86,0,0,0,0.05
2014-10-4,81.7,75.3,59.2,74.0,63.8,42.0,94,69,40,29.88,29.66,0,0,0,0.21
2014-10-5,67.6,59.0,50.1,51.0,43.0,38.0,76,57,38,30.09,29.89,0,0,0,0.00
2014-10-6,72.1,65.9,56.8,60.0,52.5,47.0,80,63,46,30.18,30.08,0,0,0,0.00
2014-10-7,77.2,72.7,64.5,70.0,65.3,60.0,86,78,66,30.20,30.08,0,0,0,0.00
2014-10-8,78.3,75.8,73.2,73.0,71.8,70.0,92,87,82,30.10,29.98,0,0,0,0.00
2014-10-9,76.3,70.2,62.5,71.0,59.0,55.0,92,69,49,30.18,30.03,0,0,0,0.00
2014-10-10,77.4,72.6,64.2,72.0,65.9,59.0,91,80,60,30.18,30.08,0,0,0,0.00
2014-10-11,78.5,75.8,69.9,75.0,72.8,69.0,95,90,86,30.09,29.97,0,0,0,0.08
2014-10-12,74.0,68.7,64.2,68.0,65.4,63.0,97,89,77,30.23,30.06,0,0,0,0.14
2014-10-13,78.3,72.7,65.6,74.0,70.3,65.0,98,92,85,30.28,30.21,0,0,0,0.00
2014-10-14,78.9,77.0,75.5,74.0,73.1,72.0,93,87,84,30.21,30.02,0,0,0,0.11
2014-10-15,78.0,71.6,61.5,75.0,69.9,60.0,97,94,89,30.04,29.85,0,0,0,1.75
2014-10-16,73.2,66.7,59.9,63.0,58.1,55.0,93,75,58,29.89,29.81,0,0,0,0.00
2014-10-17,72.5,66.1,57.8,64.0,58.4,54.0,88,77,56,29.96,29.86,0,0,0,0.00
2014-10-18,75.7,70.3,64.3,69.0,62.2,53.0,88,75,65,29.89,29.75,0,0,0,0.00
2014-10-19,65.8,60.2,54.2,53.0,48.8,45.0,83,67,48,30.17,29.89,0,0,0,0.00
2014-10-20,72.9,63.3,53.3,65.0,55.0,49.0,90,75,56,30.21,30.02,0,0,0,0.00
2014-10-21,74.3,68.6,61.7,65.0,61.6,59.0,92,79,61,30.01,29.86,0,0,0,0.00
2014-10-22,66.7,59.5,53.3,60.0,50.8,47.0,82,73,60,30.02,29.87,0,0,0,0.00
2014-10-23,68.3,59.0,50.1,53.0,49.3,45.0,85,71,49,30.02,29.92,0,0,0,0.00
2014-10-24,70.6,60.0,51.1,56.0,51.4,47.0,87,74,50,30.07,29.97,0,0,0,0.00
2014-10-25,70.5,62.1,52.4,59.0,53.4,49.0,89,74,55,30.03,29.91,0,0,0,0.00
2014-10-26,77.9,66.2,58.7,58.0,51.8,46.0,80,61,38,29.99,29.83,0,0,0,0.00
2014-10-27,78.0,65.5,54.3,62.0,53.2,38.0,89,68,24,30.16,29.99,0,0,0,0.00
2014-10-28,76.7,69.8,60.3,72.0,66.2,59.0,95,88,78,30.20,30.12,0,0,0,0.00
2014-10-29,75.2,71.7,69.6,70.0,68.7,67.0,93,90,82,30.12,29.95,0,0,0,0.00
2014-10-30,70.9,62.5,56.3,69.0,58.2,54.0,96,86,71,30.03,29.95,0,0,0,0.14
2014-10-31,66.1,58.9,53.5,53.0,50.6,47.0,89,75,58,29.97,29.78,0,0,0,0.00
2014-11-1,55.9,51.4,48.7,51.0,47.4,43.0,95,86,70,29.82,29.58,0,0,0,0.27
2014-11-2,51.6,47.1,42.7,43.0,35.8,31.0,80,65,53,30.32,29.83,0,0,0,0.00
2014-11-3,64.8,50.3,37.8,45.0,33.0,26.0,78,55,26,30.45,30.31,0,0,0,0.00
2014-11-4,65.7,58.2,48.0,54.0,43.4,36.0,77,59,40,30.41,30.30,0,0,0,0.00
2014-11-5,69.0,65.4,59.4,65.0,62.2,53.0,94,89,77,30.36,30.22,0,0,0,0.00
2014-11-6,69.5,67.5,58.7,66.0,64.4,50.0,94,90,73,30.22,29.78,0,0,0,0.00
2014-11-7,63.1,55.7,49.5,49.0,43.6,41.0,77,65,50,30.08,29.82,0,0,0,0.00
2014-11-8,62.5,53.3,44.2,51.0,45.4,39.0,89,75,54,30.11,29.99,0,0,0,0.00
2014-11-9,62.5,56.1,51.1,52.0,49.8,48.0,92,80,62,30.05,29.95,0,0,0,0.00
2014-11-10,65.7,57.2,49.2,57.0,52.1,47.0,94,83,63,30.14,30.02,0,0,0,0.00
2014-11-11,68.0,63.8,58.7,67.0,62.9,56.0,98,97,91,30.01,29.87,0,0,0,0.99
2014-11-12,74.9,65.1,59.2,65.0,61.9,58.0,98,90,62,30.04,29.89,0,0,0,0.00
2014-11-13,69.5,59.6,47.7,63.0,57.4,47.0,97,92,76,30.07,29.95,0,0,0,0.01
2014-11-14,47.5,42.8,35.7,47.0,37.3,30.0,96,81,70,30.30,29.99,0,0,0,0.03
2014-11-15,48.7,40.5,32.2,36.0,30.7,26.0,84,70,47,30.44,30.29,0,0,0,0.00
2014-11-16,59.8,49.1,39.8,54.0,45.5,35.0,98,87,79,30.40,30.08,0,0,0,0.28
2014-11-17,67.7,61.3,50.3,66.0,60.5,50.0,99,97,93,30.10,29.70,0,0,0,0.54
2014-11-18,62.2,43.8,33.5,61.0,31.6,20.0,96,63,41,30.36,29.78,0,0,0,0.00
2014-11-19,47.3,37.6,29.1,34.0,23.0,15.0,75,57,34,30.48,30.30,0,0,0,0.00
2014-11-20,57.9,50.4,39.2,49.0,36.4,22.0,80,60,37,30.30,30.08,0,0,0,0.00
2014-11-21,52.3,46.2,37.3,40.0,29.9,21.0,76,55,30,30.57,30.19,0,0,0,0.00
2014-11-22,57.7,46.2,36.0,45.0,37.3,28.0,87,72,54,30.60,30.35,0,0,0,0.00
2014-11-23,66.0,58.4,47.5,64.0,55.8,43.0,95,91,85,30.35,29.86,0,0,0,0.27
2014-11-24,65.9,62.7,60.6,65.0,62.2,60.0,99,98,93,30.01,29.83,0,0,0,0.65
2014-11-25,65.2,61.8,59.8,64.0,61.4,59.0,99,98,96,30.11,29.98,0,0,0,0.29
2014-11-26,65.9,54.0,43.2,66.0,53.0,40.0,99,96,89,30.14,29.73,0,0,0,0.63
2014-11-27,56.9,48.4,40.1,49.0,41.7,35.0,95,79,57,30.24,29.98,0,0,0,0.00
2014-11-28,46.3,40.1,34.7,34.0,29.4,25.0,81,67,46,30.37,30.23,0,0,0,0.00
2014-11-29,57.2,46.8,37.2,53.0,36.5,28.0,85,69,45,30.43,30.32,0,0,0,0.00
2014-11-30,60.8,56.4,46.4,56.0,51.3,43.0,91,83,67,30.42,30.31,0,0,0,0.00
2014-12-1,63.3,58.2,54.0,58.0,55.3,51.0,95,90,83,30.44,30.33,0,0,0,0.00
2014-12-2,60.3,55.0,51.2,56.0,53.3,50.0,97,94,84,30.45,30.35,0,0,0,0.01
2014-12-3,60.3,55.2,50.7,59.0,54.5,50.0,99,97,92,30.34,30.22,0,0,0,0.00
2014-12-4,57.9,53.5,48.0,56.0,49.6,44.0,98,87,73,30.42,30.27,0,0,0,0.00
2014-12-5,62.4,54.0,47.0,56.0,49.9,43.0,92,86,78,30.45,30.35,0,0,0,0.00
2014-12-6,65.6,59.4,53.7,65.0,58.4,52.0,98,96,93,30.34,30.04,0,0,0,0.70
2014-12-7,60.5,48.2,44.2,60.0,44.4,38.0,98,86,77,30.36,30.03,0,0,0,0.01
2014-12-8,57.7,49.3,42.8,49.0,44.7,38.0,96,84,73,30.33,30.06,0,0,0,0.01
2014-12-9,45.6,43.0,41.4,45.0,42.1,40.0,98,96,92,30.06,29.88,0,0,0,0.12
2014-12-10,53.8,46.4,41.3,43.0,39.4,32.0,96,78,60,30.01,29.90,0,0,0,0.07
2014-12-11,51.0,41.4,35.3,34.0,30.4,27.0,79,66,44,30.15,30.01,0,0,0,0.00
2014-12-12,55.0,44.4,35.6,34.0,27.3,23.0,77,52,34,30.24,30.12,0,0,0,0.00
2014-12-13,57.4,45.7,36.4,44.0,35.1,28.0,86,67,45,30.18,30.04,0,0,0,0.00
2014-12-14,58.1,46.3,37.7,43.0,36.1,31.0,80,69,46,30.07,30.00,0,0,0,0.00